createdAt,value
2023-02-22T00:00:59.935Z,52.02
2023-02-22T00:03:32.485Z,52.39
2023-02-22T00:06:05.272Z,52.13
2023-02-22T00:08:37.546Z,52.39
2023-02-22T00:11:10.708Z,52.00
2023-02-22T00:13:38.901Z,51.99
2023-02-22T00:16:06.983Z,52.16
2023-02-22T00:18:34.223Z,51.86
2023-02-22T00:21:01.951Z,52.19
2023-02-22T00:23:32.073Z,52.17
2023-02-22T00:26:00.496Z,51.93
2023-02-22T00:28:28.088Z,51.84
2023-02-22T00:30:55.589Z,52.14
2023-02-22T00:33:23.017Z,52.17
2023-02-22T00:35:50.362Z,52.01
2023-02-22T00:38:19.365Z,51.93
2023-02-22T00:40:46.982Z,52.15
2023-02-22T00:43:14.246Z,51.79
2023-02-22T00:45:42.245Z,52.24
2023-02-22T00:48:09.995Z,51.94
2023-02-22T00:50:37.678Z,51.73
2023-02-22T00:53:06.119Z,51.86
2023-02-22T00:55:36.191Z,52.37
2023-02-22T00:58:05.358Z,52.50
2023-02-22T01:00:39.625Z,52.69
2023-02-22T01:03:08.727Z,52.72
2023-02-22T01:05:38.341Z,52.86
2023-02-22T01:08:07.914Z,52.83
2023-02-22T01:10:36.521Z,53.01
2023-02-22T01:13:09.283Z,53.11
2023-02-22T01:15:39.066Z,53.10
2023-02-22T01:18:07.087Z,53.45
2023-02-22T01:20:34.494Z,53.34
2023-02-22T01:23:03.908Z,53.76
2023-02-22T01:25:32.398Z,53.77
2023-02-22T01:28:01.383Z,54.01
2023-02-22T01:30:32.987Z,54.51
2023-02-22T01:33:02.377Z,54.04
2023-02-22T01:35:33.918Z,54.14
2023-02-22T01:38:01.160Z,54.43
2023-02-22T01:40:34.607Z,54.24
2023-02-22T01:43:06.719Z,54.48
2023-02-22T01:45:34.009Z,54.44
2023-02-22T01:48:19.868Z,54.36
2023-02-22T01:51:16.350Z,54.40
2023-02-22T01:53:52.215Z,54.17
2023-02-22T01:56:21.204Z,53.88
2023-02-22T01:58:56.945Z,53.51
2023-02-22T02:01:26.087Z,53.46
2023-02-22T02:03:58.360Z,53.49
2023-02-22T02:06:28.105Z,52.99
2023-02-22T02:09:14.218Z,53.27
2023-02-22T02:11:42.571Z,53.28
2023-02-22T02:14:11.253Z,53.59
2023-02-22T02:16:42.001Z,53.90
2023-02-22T02:19:53.938Z,53.76
2023-02-22T02:22:49.326Z,53.85
2023-02-22T02:25:32.420Z,53.93
2023-02-22T02:28:24.117Z,54.01
2023-02-22T02:31:06.303Z,53.63
2023-02-22T02:33:41.802Z,53.60
2023-02-22T02:36:20.937Z,53.98
2023-02-22T02:38:56.653Z,53.33
2023-02-22T02:41:49.432Z,53.64
2023-02-22T02:44:37.997Z,53.61
2023-02-22T02:47:08.121Z,53.61
2023-02-22T02:49:51.817Z,53.67
2023-02-22T02:52:21.698Z,53.93
2023-02-22T02:54:50.791Z,54.11
2023-02-22T02:57:17.911Z,54.29
2023-02-22T02:59:46.499Z,54.26
2023-02-22T03:02:49.348Z,54.18
2023-02-22T03:05:47.921Z,54.45
2023-02-22T03:08:27.482Z,54.21
2023-02-22T03:11:15.435Z,54.21
2023-02-22T03:13:48.656Z,54.81
2023-02-22T03:16:45.365Z,54.71
2023-02-22T03:19:27.903Z,54.93
2023-02-22T03:22:05.673Z,55.12
2023-02-22T03:24:43.237Z,54.96
2023-02-22T03:27:17.934Z,55.62
2023-02-22T03:29:46.044Z,55.83
2023-02-22T03:32:18.023Z,56.09
2023-02-22T03:34:56.868Z,56.21
2023-02-22T03:37:30.093Z,56.35
2023-02-22T03:40:00.434Z,56.55
2023-02-22T03:42:37.801Z,57.01
2023-02-22T03:45:10.148Z,56.79
2023-02-22T03:48:06.949Z,56.51
2023-02-22T03:50:37.039Z,56.75
2023-02-22T03:53:05.401Z,57.13
2023-02-22T03:55:33.155Z,57.38
2023-02-22T03:58:04.991Z,57.47
2023-02-22T04:00:34.227Z,57.17
2023-02-22T04:03:02.543Z,57.16
2023-02-22T04:05:29.611Z,57.14
2023-02-22T04:07:57.788Z,57.29
2023-02-22T04:10:25.443Z,57.30
2023-02-22T04:12:52.849Z,57.10
2023-02-22T04:15:23.391Z,57.11
2023-02-22T04:17:52.645Z,57.26
2023-02-22T04:20:20.151Z,57.09
2023-02-22T04:22:47.644Z,57.17
2023-02-22T04:25:15.498Z,57.28
2023-02-22T04:27:44.136Z,57.46
2023-02-22T04:30:13.124Z,57.08
2023-02-22T04:32:40.828Z,57.49
2023-02-22T04:35:08.407Z,57.67
2023-02-22T04:37:35.952Z,57.42
2023-02-22T04:40:08.778Z,57.67
2023-02-22T04:42:37.654Z,58.17
2023-02-22T04:45:08.090Z,57.88
2023-02-22T04:47:36.431Z,57.80
2023-02-22T04:50:09.325Z,57.98
2023-02-22T04:52:36.797Z,58.52
2023-02-22T04:55:04.979Z,58.49
2023-02-22T04:57:32.478Z,58.57
2023-02-22T04:59:59.737Z,58.70
2023-02-22T05:02:32.418Z,58.81
2023-02-22T05:04:59.532Z,59.13
2023-02-22T05:07:54.884Z,59.28
2023-02-22T05:10:21.898Z,59.09
2023-02-22T05:12:50.217Z,59.44
2023-02-22T05:15:19.905Z,59.49
2023-02-22T05:17:48.928Z,59.11
2023-02-22T05:20:22.449Z,59.39
2023-02-22T05:22:52.046Z,59.43
2023-02-22T05:25:20.985Z,59.38
2023-02-22T05:27:53.025Z,59.74
2023-02-22T05:30:35.746Z,59.88
2023-02-22T05:33:03.295Z,60.09
2023-02-22T05:35:33.826Z,60.04
2023-02-22T05:38:03.261Z,59.96
2023-02-22T05:40:31.465Z,60.10
2023-02-22T05:42:59.824Z,60.11
2023-02-22T05:45:28.004Z,60.08
2023-02-22T05:47:56.370Z,60.61
2023-02-22T05:50:24.941Z,60.37
2023-02-22T05:53:18.563Z,60.20
2023-02-22T05:55:46.620Z,60.58
2023-02-22T05:58:15.211Z,60.52
2023-02-22T06:00:42.432Z,60.51
2023-02-22T06:03:11.118Z,60.47
2023-02-22T06:05:39.122Z,60.63
2023-02-22T06:08:31.614Z,60.62
2023-02-22T06:10:58.888Z,60.72
2023-02-22T06:13:26.328Z,61.11
2023-02-22T06:15:53.409Z,60.96
2023-02-22T06:18:21.321Z,60.76
2023-02-22T06:20:48.411Z,60.67
2023-02-22T06:23:16.199Z,61.02
2023-02-22T06:25:46.334Z,60.71
2023-02-22T06:28:18.319Z,60.86
2023-02-22T06:30:46.256Z,60.87
2023-02-22T06:33:13.971Z,60.55
2023-02-22T06:35:41.069Z,60.32
2023-02-22T06:38:08.842Z,60.50
2023-02-22T06:40:37.204Z,59.89
2023-02-22T06:43:04.555Z,59.50
2023-02-22T06:45:31.770Z,59.25
2023-02-22T06:48:01.631Z,59.15
2023-02-22T06:50:31.419Z,58.88
2023-02-22T06:53:00.021Z,59.08
2023-02-22T06:55:29.534Z,58.92
2023-02-22T06:57:56.988Z,59.00
2023-02-22T07:00:26.125Z,59.45
2023-02-22T07:02:54.305Z,59.41
2023-02-22T07:05:23.029Z,59.63
2023-02-22T07:07:52.760Z,59.01
2023-02-22T07:10:29.417Z,58.87
2023-02-22T07:12:57.165Z,59.11
2023-02-22T07:15:26.061Z,59.19
2023-02-22T07:17:56.060Z,59.38
2023-02-22T07:20:25.073Z,59.68
2023-02-22T07:22:56.554Z,59.42
2023-02-22T07:25:24.666Z,59.04
2023-02-22T07:27:54.947Z,59.23
2023-02-22T07:30:25.959Z,58.90
2023-02-22T07:32:55.233Z,58.93
2023-02-22T07:35:36.736Z,58.44
2023-02-22T07:38:09.885Z,57.98
2023-02-22T07:40:40.375Z,57.91
2023-02-22T07:43:21.195Z,57.80
2023-02-22T07:45:51.118Z,57.89
2023-02-22T07:48:23.073Z,57.83
2023-02-22T07:50:50.401Z,57.39
2023-02-22T07:53:28.657Z,57.18
2023-02-22T07:56:05.676Z,57.00
2023-02-22T07:58:33.142Z,56.45
2023-02-22T08:01:04.574Z,55.83
2023-02-22T08:03:38.538Z,55.63
2023-02-22T08:06:07.737Z,55.31
2023-02-22T08:08:35.416Z,55.30
2023-02-22T08:11:06.740Z,55.37
2023-02-22T08:13:37.275Z,55.05
2023-02-22T08:16:04.617Z,55.19
2023-02-22T08:18:33.171Z,54.77
2023-02-22T08:21:00.309Z,54.39
2023-02-22T08:23:27.653Z,54.27
2023-02-22T08:25:55.023Z,53.93
2023-02-22T08:28:24.642Z,53.92
2023-02-22T08:30:52.604Z,53.83
2023-02-22T08:33:20.873Z,53.87
2023-02-22T08:35:49.846Z,53.07
2023-02-22T08:38:40.500Z,53.36
2023-02-22T08:41:10.040Z,53.06
2023-02-22T08:43:37.682Z,52.51
2023-02-22T08:46:11.522Z,52.24
2023-02-22T08:48:50.607Z,53.29
2023-02-22T08:51:20.125Z,53.90
2023-02-22T08:53:47.590Z,54.37
2023-02-22T08:56:14.843Z,53.79
2023-02-22T08:58:42.227Z,54.90
2023-02-22T09:01:09.482Z,55.18
2023-02-22T09:03:36.884Z,55.34
2023-02-22T09:06:05.305Z,55.14
2023-02-22T09:08:32.803Z,54.55
2023-02-22T09:10:59.886Z,53.93
2023-02-22T09:13:29.396Z,53.67
2023-02-22T09:15:56.420Z,54.07
2023-02-22T09:18:25.579Z,53.46
2023-02-22T09:20:54.878Z,54.59
2023-02-22T09:23:22.428Z,54.31
2023-02-22T09:25:49.738Z,53.87
2023-02-22T09:28:17.214Z,54.28
2023-02-22T09:30:44.654Z,49.89
2023-02-22T09:33:15.677Z,47.13
2023-02-22T09:35:46.604Z,46.15
2023-02-22T09:38:26.107Z,47.75
2023-02-22T09:41:04.687Z,50.39
2023-02-22T09:44:00.189Z,51.54
2023-02-22T09:46:48.142Z,53.46
2023-02-22T09:49:19.503Z,53.62
2023-02-22T09:52:05.613Z,51.14
2023-02-22T09:54:52.862Z,48.71
2023-02-22T09:57:32.182Z,47.90
2023-02-22T10:00:13.750Z,46.52
2023-02-22T10:02:53.437Z,49.79
2023-02-22T10:05:38.079Z,46.56
2023-02-22T10:08:10.822Z,46.53
2023-02-22T10:11:02.215Z,48.73
2023-02-22T10:13:39.446Z,48.22
2023-02-22T10:16:20.585Z,47.60
2023-02-22T10:19:10.944Z,44.36
2023-02-22T10:21:50.208Z,42.97
2023-02-22T10:24:20.587Z,42.55
2023-02-22T10:26:48.792Z,43.01
2023-02-22T10:29:31.029Z,40.51
2023-02-22T10:32:02.153Z,39.14
2023-02-22T10:34:39.791Z,41.00
2023-02-22T10:37:24.202Z,41.37
2023-02-22T10:39:56.363Z,39.66
2023-02-22T10:42:27.474Z,38.47
2023-02-22T10:44:54.863Z,35.34
2023-02-22T10:47:26.074Z,33.18
2023-02-22T10:49:58.890Z,31.80
2023-02-22T10:52:34.866Z,36.31
2023-02-22T10:55:14.952Z,39.57
2023-02-22T10:57:47.984Z,44.13
2023-02-22T11:00:37.437Z,45.84
2023-02-22T11:03:22.294Z,46.74
2023-02-22T11:05:51.062Z,46.73
2023-02-22T11:08:22.059Z,47.16
2023-02-22T11:10:50.969Z,45.45
2023-02-22T11:13:32.733Z,42.37
2023-02-22T11:16:27.135Z,40.27
2023-02-22T11:19:02.773Z,37.67
2023-02-22T11:21:32.736Z,39.95
2023-02-22T11:24:10.594Z,40.92
2023-02-22T11:26:51.985Z,43.71
2023-02-22T11:29:34.404Z,45.34
2023-02-22T11:32:13.554Z,46.29
2023-02-22T11:34:45.429Z,46.98
2023-02-22T11:37:31.890Z,45.64
2023-02-22T11:40:15.521Z,39.92
2023-02-22T11:42:44.988Z,38.97
2023-02-22T11:45:22.870Z,37.81
2023-02-22T11:47:56.265Z,39.99
2023-02-22T11:50:33.498Z,42.43
2023-02-22T11:53:25.813Z,44.51
2023-02-22T11:56:14.097Z,46.00
2023-02-22T11:58:45.807Z,47.38
2023-02-22T12:06:02.150Z,47.95
2023-02-22T12:08:57.059Z,48.13
2023-02-22T12:12:04.320Z,48.22
2023-02-22T12:15:06.656Z,45.11
2023-02-22T12:17:43.644Z,42.01
2023-02-22T12:20:25.049Z,40.86
2023-02-22T12:23:02.171Z,38.79
2023-02-22T12:25:35.792Z,37.72
2023-02-22T12:28:24.796Z,40.45
2023-02-22T12:31:30.673Z,42.37
2023-02-22T12:34:31.183Z,43.96
2023-02-22T12:37:32.958Z,45.09
2023-02-22T12:40:30.996Z,45.54
2023-02-22T12:43:30.751Z,46.17
2023-02-22T12:46:19.595Z,46.68
2023-02-22T12:49:08.499Z,48.06
2023-02-22T12:51:57.777Z,49.03
2023-02-22T12:58:52.265Z,49.78
2023-02-22T13:01:30.719Z,50.85
2023-02-22T13:04:20.488Z,48.95
2023-02-22T13:06:56.194Z,47.80
2023-02-22T13:09:56.962Z,46.36
2023-02-22T13:12:52.624Z,45.50
2023-02-22T13:15:22.604Z,44.96
2023-02-22T13:18:21.533Z,45.10
2023-02-22T13:21:07.100Z,44.95
2023-02-22T13:23:47.307Z,45.26
2023-02-22T13:26:47.045Z,45.63
2023-02-22T13:29:27.121Z,45.98
2023-02-22T13:35:15.579Z,46.50
2023-02-22T13:38:16.150Z,46.67
2023-02-22T13:41:32.714Z,46.94
2023-02-22T13:44:25.743Z,46.99
2023-02-22T13:47:11.599Z,47.02
2023-02-22T13:50:10.965Z,45.98
2023-02-22T13:52:41.088Z,45.44
2023-02-22T13:55:21.021Z,45.70
2023-02-22T13:58:17.310Z,46.64
2023-02-22T14:01:03.023Z,47.74
2023-02-22T14:03:36.731Z,48.45
2023-02-22T14:06:53.620Z,48.65
2023-02-22T14:09:47.162Z,49.22
2023-02-22T14:12:30.095Z,48.81
2023-02-22T14:15:28.744Z,48.38
2023-02-22T14:18:03.938Z,48.30
2023-02-22T14:20:59.494Z,48.74
2023-02-22T14:23:37.866Z,48.26
2023-02-22T14:26:20.380Z,48.57
2023-02-22T14:29:24.977Z,48.08
2023-02-22T14:32:01.100Z,48.78
2023-02-22T14:34:58.384Z,49.09
2023-02-22T14:37:37.549Z,48.98
2023-02-22T14:40:34.205Z,49.80
2023-02-22T14:43:15.996Z,49.46
2023-02-22T14:45:53.676Z,49.41
2023-02-22T14:48:39.700Z,50.18
2023-02-22T14:51:25.113Z,50.30
2023-02-22T14:54:09.047Z,49.52
2023-02-22T14:56:49.288Z,49.87
2023-02-22T14:59:26.509Z,50.05
2023-02-22T15:02:12.260Z,50.10
2023-02-22T15:04:50.218Z,50.44
2023-02-22T15:07:30.040Z,50.89
2023-02-22T15:10:28.431Z,51.77
2023-02-22T15:13:09.832Z,52.52
2023-02-22T15:15:46.965Z,52.74
2023-02-22T15:18:30.263Z,53.41
2023-02-22T15:21:13.322Z,53.19
2023-02-22T15:23:41.970Z,53.07
2023-02-22T15:27:00.657Z,53.05
2023-02-22T15:29:57.006Z,53.35
2023-02-22T15:32:27.552Z,53.54
2023-02-22T15:34:56.642Z,53.39
2023-02-22T15:37:28.200Z,53.26
2023-02-22T15:40:07.829Z,53.63
2023-02-22T15:42:50.476Z,53.52
2023-02-22T15:45:26.371Z,53.97
2023-02-22T15:47:58.839Z,53.83
2023-02-22T15:50:34.852Z,54.43
2023-02-22T15:53:21.121Z,54.35
2023-02-22T15:55:54.928Z,54.56
2023-02-22T15:58:29.063Z,54.42
2023-02-22T16:01:05.914Z,54.56
2023-02-22T16:03:54.440Z,54.59
2023-02-22T16:06:25.117Z,54.90
2023-02-22T16:08:55.967Z,54.63
2023-02-22T16:11:31.814Z,54.68
2023-02-22T16:14:17.580Z,54.60
2023-02-22T16:17:37.794Z,54.45
2023-02-22T16:20:11.692Z,54.42
2023-02-22T16:22:50.781Z,54.70
2023-02-22T16:25:22.563Z,55.17
2023-02-22T16:28:03.289Z,55.54
2023-02-22T16:30:38.477Z,55.03
2023-02-22T16:33:13.893Z,54.95
2023-02-22T16:35:52.746Z,54.78
2023-02-22T16:38:24.707Z,54.79
2023-02-22T16:40:55.557Z,54.87
2023-02-22T16:43:25.410Z,55.13
2023-02-22T16:45:55.580Z,55.10
2023-02-22T16:48:25.246Z,55.28
2023-02-22T16:50:55.590Z,55.33
2023-02-22T16:53:26.455Z,55.47
2023-02-22T16:55:58.215Z,55.77
2023-02-22T16:58:28.046Z,55.80
2023-02-22T17:00:57.593Z,56.24
2023-02-22T17:03:28.241Z,56.04
2023-02-22T17:05:58.023Z,55.89
2023-02-22T17:08:26.612Z,55.81
2023-02-22T17:11:04.331Z,55.86
2023-02-22T17:13:34.955Z,55.84
2023-02-22T17:16:02.350Z,56.12
2023-02-22T17:18:34.070Z,56.44
2023-02-22T17:21:05.576Z,56.21
2023-02-22T17:23:33.712Z,56.15
2023-02-22T17:26:02.485Z,56.17
2023-02-22T17:28:30.920Z,56.61
2023-02-22T17:31:03.848Z,56.57
2023-02-22T17:33:40.434Z,56.43
2023-02-22T17:36:08.510Z,56.51
2023-02-22T17:38:36.798Z,56.69
2023-02-22T17:43:49.586Z,57.42
2023-02-22T17:46:21.834Z,57.00
2023-02-22T17:48:49.846Z,57.04
2023-02-22T17:51:18.312Z,57.04
2023-02-22T17:53:45.411Z,57.12
2023-02-22T17:56:19.491Z,57.09
2023-02-22T17:58:53.585Z,57.26
2023-02-22T18:01:32.136Z,57.37
2023-02-22T18:04:02.754Z,57.79
2023-02-22T18:06:33.244Z,57.37
2023-02-22T18:09:01.733Z,57.62
2023-02-22T18:11:37.044Z,58.04
2023-02-22T18:14:10.057Z,57.90
2023-02-22T18:16:39.804Z,58.38
2023-02-22T18:19:08.114Z,58.51
2023-02-22T18:21:36.513Z,58.76
2023-02-22T18:24:04.304Z,58.79
2023-02-22T18:26:32.476Z,58.76
2023-02-22T18:29:01.204Z,58.85
2023-02-22T18:31:35.414Z,59.12
2023-02-22T18:34:03.262Z,59.33
2023-02-22T18:36:30.879Z,59.67
2023-02-22T18:38:58.158Z,59.42
2023-02-22T18:41:26.057Z,59.56
2023-02-22T18:43:55.699Z,60.06
2023-02-22T18:46:32.886Z,60.27
2023-02-22T18:49:03.275Z,59.51
2023-02-22T18:51:31.122Z,59.23
2023-02-22T18:54:02.529Z,59.31
2023-02-22T18:56:31.531Z,59.75
2023-02-22T18:59:02.515Z,59.68
2023-02-22T19:01:31.996Z,59.86
2023-02-22T19:04:07.596Z,59.25
2023-02-22T19:06:37.004Z,59.71
2023-02-22T19:09:08.588Z,60.21
2023-02-22T19:12:03.754Z,59.85
2023-02-22T19:14:33.454Z,59.83
2023-02-22T19:17:07.602Z,59.62
2023-02-22T19:19:35.200Z,59.68
2023-02-22T19:22:05.049Z,59.06
2023-02-22T19:24:33.239Z,59.33
2023-02-22T19:27:00.876Z,59.60
2023-02-22T19:29:31.353Z,59.16
2023-02-22T19:32:00.973Z,58.81
2023-02-22T19:34:28.200Z,58.81
2023-02-22T19:36:56.167Z,59.46
2023-02-22T19:39:24.256Z,59.20
2023-02-22T19:41:52.592Z,59.24
2023-02-22T19:44:19.708Z,59.36
2023-02-22T19:46:47.690Z,59.55
2023-02-22T19:49:15.833Z,59.22
2023-02-22T19:51:43.365Z,59.34
2023-02-22T19:54:17.523Z,59.21
2023-02-22T19:56:45.177Z,59.34
2023-02-22T19:59:17.166Z,59.41
2023-02-22T20:01:45.618Z,59.50
2023-02-22T20:04:18.398Z,59.26
2023-02-22T20:06:54.029Z,59.61
2023-02-22T20:09:43.346Z,59.31
2023-02-22T20:12:10.858Z,58.93
2023-02-22T20:14:40.442Z,59.32
2023-02-22T20:17:09.056Z,59.22
2023-02-22T20:19:37.739Z,59.40
2023-02-22T20:22:05.337Z,59.40
2023-02-22T20:24:32.636Z,59.55
2023-02-22T20:27:00.128Z,59.56
2023-02-22T20:29:29.997Z,59.60
2023-02-22T20:32:02.158Z,59.54
2023-02-22T20:34:35.164Z,59.63
2023-02-22T20:37:17.795Z,59.62
2023-02-22T20:39:45.283Z,59.41
2023-02-22T20:42:12.453Z,59.56
2023-02-22T20:44:39.850Z,59.52
2023-02-22T20:47:09.119Z,59.78
2023-02-22T20:49:37.509Z,59.51
2023-02-22T20:52:04.856Z,59.67
2023-02-22T20:54:39.111Z,59.84
2023-02-22T20:57:08.231Z,59.89
2023-02-22T20:59:36.185Z,60.07
2023-02-22T21:02:03.366Z,60.09
2023-02-22T21:04:35.349Z,60.25
2023-02-22T21:07:03.584Z,60.52
2023-02-22T21:09:32.597Z,60.19
2023-02-22T21:11:59.748Z,60.35
2023-02-22T21:14:27.078Z,60.34
2023-02-22T21:16:54.306Z,60.75
2023-02-22T21:19:28.255Z,60.88
2023-02-22T21:21:58.302Z,60.83
2023-02-22T21:24:27.538Z,60.54
2023-02-22T21:26:58.793Z,60.57
2023-02-22T21:29:29.877Z,60.40
2023-02-22T21:32:06.430Z,60.39
2023-02-22T21:34:34.570Z,60.72
2023-02-22T21:37:01.839Z,60.63
2023-02-22T21:39:29.380Z,60.61
2023-02-22T21:42:00.751Z,60.50
2023-02-22T21:44:28.989Z,60.43
2023-02-22T21:46:56.171Z,60.36
2023-02-22T21:49:23.824Z,61.13
2023-02-22T21:51:52.706Z,60.64
2023-02-22T21:54:20.304Z,60.53
2023-02-22T21:56:48.061Z,60.92
2023-02-22T21:59:20.604Z,61.01
2023-02-22T22:01:56.074Z,61.04
2023-02-22T22:04:27.732Z,60.65
2023-02-22T22:06:57.549Z,61.10
2023-02-22T22:09:32.547Z,60.65
2023-02-22T22:12:03.094Z,60.89
2023-02-22T22:14:33.794Z,61.17
2023-02-22T22:17:01.218Z,60.61
2023-02-22T22:19:30.301Z,60.64
2023-02-22T22:21:58.373Z,60.79
2023-02-22T22:24:28.657Z,60.96
2023-02-22T22:26:56.261Z,61.12
2023-02-22T22:29:26.706Z,61.15
2023-02-22T22:31:53.741Z,61.28
2023-02-22T22:34:24.436Z,60.98
2023-02-22T22:36:51.618Z,61.31
2023-02-22T22:39:21.200Z,61.01
2023-02-22T22:41:48.467Z,61.13
2023-02-22T22:44:22.275Z,60.86
2023-02-22T22:46:53.819Z,61.42
2023-02-22T22:49:23.480Z,61.30
2023-02-22T22:51:51.428Z,61.13
2023-02-22T22:54:18.772Z,61.24
2023-02-22T22:56:50.920Z,60.70
2023-02-22T22:59:18.836Z,60.52
2023-02-22T23:01:45.784Z,60.37
2023-02-22T23:04:18.918Z,60.26
2023-02-22T23:06:50.035Z,59.87
2023-02-22T23:09:21.829Z,60.19
2023-02-22T23:11:55.292Z,60.30
2023-02-22T23:14:25.255Z,60.50
2023-02-22T23:16:53.504Z,60.28
2023-02-22T23:19:20.813Z,59.97
2023-02-22T23:21:49.456Z,60.19
2023-02-22T23:24:19.419Z,60.05
2023-02-22T23:26:48.791Z,60.00
2023-02-22T23:29:19.241Z,59.75
2023-02-22T23:31:48.936Z,60.07
2023-02-22T23:34:21.519Z,60.19
2023-02-22T23:36:49.294Z,59.86
2023-02-22T23:39:22.641Z,59.70
2023-02-22T23:41:51.355Z,59.97
2023-02-22T23:44:19.916Z,59.76
2023-02-22T23:46:48.878Z,59.31
2023-02-22T23:49:20.789Z,59.49
2023-02-22T23:51:48.802Z,59.71
2023-02-22T23:54:21.512Z,60.90
2023-02-22T23:56:58.187Z,60.88
2023-02-22T23:59:27.088Z,60.98
